sensor_id;sensor_type;location;lat;lon;timestamp;pressure;altitude;pressure_sealevel;temperature;humidity
79136;BME280;68533;51.090;17.216;2023-05-14T00:01:46;100668.84;;;5.69;80.33
79136;BME280;68533;51.090;17.216;2023-05-14T00:04:12;100670.53;;;5.58;81.67
79136;BME280;68533;51.090;17.216;2023-05-14T00:06:38;100673.34;;;5.63;81.81
79136;BME280;68533;51.090;17.216;2023-05-14T00:09:04;100662.59;;;5.57;82.99
79136;BME280;68533;51.090;17.216;2023-05-14T00:11:30;100666.66;;;5.54;83.27
79136;BME280;68533;51.090;17.216;2023-05-14T00:13:56;100663.94;;;5.54;83.72
79136;BME280;68533;51.090;17.216;2023-05-14T00:16:22;100667.34;;;5.61;84.35
79136;BME280;68533;51.090;17.216;2023-05-14T00:18:48;100665.44;;;5.62;83.87
79136;BME280;68533;51.090;17.216;2023-05-14T00:21:14;100666.94;;;5.69;85.08
79136;BME280;68533;51.090;17.216;2023-05-14T00:23:40;100665.19;;;5.80;84.02
79136;BME280;68533;51.090;17.216;2023-05-14T00:26:06;100657.47;;;5.89;84.26
79136;BME280;68533;51.090;17.216;2023-05-14T00:28:32;100661.94;;;6.11;82.47
79136;BME280;68533;51.090;17.216;2023-05-14T00:30:58;100652.56;;;6.24;81.27
79136;BME280;68533;51.090;17.216;2023-05-14T00:33:24;100655.03;;;6.42;80.64
79136;BME280;68533;51.090;17.216;2023-05-14T00:35:50;100654.25;;;6.47;81.92
79136;BME280;68533;51.090;17.216;2023-05-14T00:38:16;100653.59;;;6.56;81.14
79136;BME280;68533;51.090;17.216;2023-05-14T00:40:44;100658.53;;;6.59;81.41
79136;BME280;68533;51.090;17.216;2023-05-14T00:43:20;100656.47;;;6.67;81.38
79136;BME280;68533;51.090;17.216;2023-05-14T00:45:49;100654.28;;;6.69;81.93
79136;BME280;68533;51.090;17.216;2023-05-14T00:48:16;100654.63;;;6.72;81.98
79136;BME280;68533;51.090;17.216;2023-05-14T00:50:42;100653.34;;;6.80;81.87
79136;BME280;68533;51.090;17.216;2023-05-14T00:53:08;100660.19;;;6.82;80.24
79136;BME280;68533;51.090;17.216;2023-05-14T00:55:38;100653.66;;;6.83;81.48
79136;BME280;68533;51.090;17.216;2023-05-14T00:58:09;100659.66;;;6.80;80.91
79136;BME280;68533;51.090;17.216;2023-05-14T01:03:10;100658.88;;;6.85;79.83
79136;BME280;68533;51.090;17.216;2023-05-14T01:06:17;100655.38;;;6.89;80.00
79136;BME280;68533;51.090;17.216;2023-05-14T01:09:09;100648.91;;;6.95;80.58
79136;BME280;68533;51.090;17.216;2023-05-14T01:16:49;100643.97;;;7.19;78.77
79136;BME280;68533;51.090;17.216;2023-05-14T01:19:38;100646.41;;;7.16;79.28
79136;BME280;68533;51.090;17.216;2023-05-14T01:22:05;100644.72;;;7.10;80.17
79136;BME280;68533;51.090;17.216;2023-05-14T01:24:31;100635.53;;;6.99;80.89
79136;BME280;68533;51.090;17.216;2023-05-14T01:27:05;100644.19;;;6.91;80.37
79136;BME280;68533;51.090;17.216;2023-05-14T01:29:33;100645.28;;;6.90;80.83
79136;BME280;68533;51.090;17.216;2023-05-14T01:32:05;100635.75;;;6.92;79.98
79136;BME280;68533;51.090;17.216;2023-05-14T01:34:34;100639.63;;;6.96;80.42
79136;BME280;68533;51.090;17.216;2023-05-14T01:37:01;100636.91;;;6.96;80.85
79136;BME280;68533;51.090;17.216;2023-05-14T01:39:30;100645.16;;;6.80;81.57
79136;BME280;68533;51.090;17.216;2023-05-14T01:41:58;100642.66;;;6.78;81.85
79136;BME280;68533;51.090;17.216;2023-05-14T01:44:24;100642.44;;;6.80;80.91
79136;BME280;68533;51.090;17.216;2023-05-14T01:46:51;100635.50;;;6.72;81.15
79136;BME280;68533;51.090;17.216;2023-05-14T01:49:17;100637.69;;;6.75;80.66
79136;BME280;68533;51.090;17.216;2023-05-14T01:51:44;100633.59;;;6.73;80.88
79136;BME280;68533;51.090;17.216;2023-05-14T01:54:10;100636.22;;;6.68;81.31
79136;BME280;68533;51.090;17.216;2023-05-14T01:56:36;100629.06;;;6.61;81.08
79136;BME280;68533;51.090;17.216;2023-05-14T01:59:02;100629.38;;;6.65;80.83
79136;BME280;68533;51.090;17.216;2023-05-14T02:01:28;100630.53;;;6.69;80.16
79136;BME280;68533;51.090;17.216;2023-05-14T02:03:53;100623.69;;;6.67;80.66
79136;BME280;68533;51.090;17.216;2023-05-14T02:06:20;100625.81;;;6.65;80.60
79136;BME280;68533;51.090;17.216;2023-05-14T02:08:46;100632.50;;;6.52;80.88
79136;BME280;68533;51.090;17.216;2023-05-14T02:11:12;100634.94;;;6.53;79.73
79136;BME280;68533;51.090;17.216;2023-05-14T02:13:38;100627.66;;;6.37;79.89
79136;BME280;68533;51.090;17.216;2023-05-14T02:16:06;100632.38;;;6.25;80.50
79136;BME280;68533;51.090;17.216;2023-05-14T02:18:32;100624.19;;;6.25;80.46
79136;BME280;68533;51.090;17.216;2023-05-14T02:20:58;100621.69;;;6.23;80.41
79136;BME280;68533;51.090;17.216;2023-05-14T02:23:24;100623.47;;;6.13;80.43
79136;BME280;68533;51.090;17.216;2023-05-14T02:25:50;100620.06;;;6.06;80.76
79136;BME280;68533;51.090;17.216;2023-05-14T02:28:16;100619.97;;;6.01;81.56
79136;BME280;68533;51.090;17.216;2023-05-14T02:30:44;100621.50;;;5.92;82.10
79136;BME280;68533;51.090;17.216;2023-05-14T02:33:09;100623.28;;;5.69;83.74
79136;BME280;68533;51.090;17.216;2023-05-14T02:35:36;100620.88;;;5.73;83.04
79136;BME280;68533;51.090;17.216;2023-05-14T02:38:02;100626.06;;;5.74;82.66
79136;BME280;68533;51.090;17.216;2023-05-14T02:40:28;100624.78;;;5.77;82.39
79136;BME280;68533;51.090;17.216;2023-05-14T02:42:54;100612.44;;;5.74;82.91
79136;BME280;68533;51.090;17.216;2023-05-14T02:45:20;100624.84;;;5.82;83.82
79136;BME280;68533;51.090;17.216;2023-05-14T02:47:46;100608.41;;;5.94;83.79
79136;BME280;68533;51.090;17.216;2023-05-14T02:50:12;100616.50;;;6.05;83.51
79136;BME280;68533;51.090;17.216;2023-05-14T02:52:38;100617.41;;;6.11;83.61
79136;BME280;68533;51.090;17.216;2023-05-14T02:55:05;100610.03;;;6.11;83.32
79136;BME280;68533;51.090;17.216;2023-05-14T02:57:31;100610.53;;;6.25;80.92
79136;BME280;68533;51.090;17.216;2023-05-14T02:59:57;100605.00;;;6.20;80.65
79136;BME280;68533;51.090;17.216;2023-05-14T03:02:23;100606.72;;;6.09;80.54
79136;BME280;68533;51.090;17.216;2023-05-14T03:04:49;100604.53;;;6.06;80.90
79136;BME280;68533;51.090;17.216;2023-05-14T03:07:15;100606.91;;;6.03;81.78
79136;BME280;68533;51.090;17.216;2023-05-14T03:09:43;100609.81;;;6.13;80.99
79136;BME280;68533;51.090;17.216;2023-05-14T03:12:09;100614.84;;;6.04;80.71
79136;BME280;68533;51.090;17.216;2023-05-14T03:14:36;100609.88;;;6.01;80.85
79136;BME280;68533;51.090;17.216;2023-05-14T03:17:02;100609.97;;;6.06;81.50
79136;BME280;68533;51.090;17.216;2023-05-14T03:19:28;100605.50;;;6.00;81.01
79136;BME280;68533;51.090;17.216;2023-05-14T03:21:54;100614.19;;;5.97;81.72
79136;BME280;68533;51.090;17.216;2023-05-14T03:24:20;100614.63;;;6.06;81.48
79136;BME280;68533;51.090;17.216;2023-05-14T03:26:46;100612.84;;;6.16;80.95
79136;BME280;68533;51.090;17.216;2023-05-14T03:29:12;100617.41;;;6.28;80.19
79136;BME280;68533;51.090;17.216;2023-05-14T03:31:42;100629.16;;;6.28;79.97
79136;BME280;68533;51.090;17.216;2023-05-14T03:34:10;100619.22;;;6.22;80.64
79136;BME280;68533;51.090;17.216;2023-05-14T03:36:36;100625.25;;;6.24;80.29
79136;BME280;68533;51.090;17.216;2023-05-14T03:39:03;100619.22;;;6.22;80.04
79136;BME280;68533;51.090;17.216;2023-05-14T03:41:32;100614.84;;;6.21;80.33
79136;BME280;68533;51.090;17.216;2023-05-14T03:43:58;100615.81;;;6.32;80.53
79136;BME280;68533;51.090;17.216;2023-05-14T03:46:25;100622.34;;;6.31;81.56
79136;BME280;68533;51.090;17.216;2023-05-14T03:48:51;100615.97;;;6.25;80.87
79136;BME280;68533;51.090;17.216;2023-05-14T03:51:17;100618.66;;;6.20;80.94
79136;BME280;68533;51.090;17.216;2023-05-14T03:53:44;100613.59;;;6.29;80.35
79136;BME280;68533;51.090;17.216;2023-05-14T03:56:10;100613.41;;;6.35;80.63
79136;BME280;68533;51.090;17.216;2023-05-14T03:58:36;100614.72;;;6.33;81.38
79136;BME280;68533;51.090;17.216;2023-05-14T04:01:02;100613.53;;;6.45;78.77
79136;BME280;68533;51.090;17.216;2023-05-14T04:03:28;100616.00;;;6.47;82.18
79136;BME280;68533;51.090;17.216;2023-05-14T04:05:54;100614.31;;;6.62;81.22
79136;BME280;68533;51.090;17.216;2023-05-14T04:08:20;100608.16;;;6.72;81.18
79136;BME280;68533;51.090;17.216;2023-05-14T04:10:46;100607.19;;;6.83;80.62
79136;BME280;68533;51.090;17.216;2023-05-14T04:13:12;100603.59;;;7.05;79.52
79136;BME280;68533;51.090;17.216;2023-05-14T04:15:38;100604.94;;;7.24;79.36
79136;BME280;68533;51.090;17.216;2023-05-14T04:18:04;100600.16;;;7.41;78.45
79136;BME280;68533;51.090;17.216;2023-05-14T04:20:33;100602.25;;;7.56;77.77
79136;BME280;68533;51.090;17.216;2023-05-14T04:22:59;100600.25;;;7.78;77.36
79136;BME280;68533;51.090;17.216;2023-05-14T04:25:25;100599.72;;;7.86;75.86
79136;BME280;68533;51.090;17.216;2023-05-14T04:27:51;100602.16;;;8.14;76.81
79136;BME280;68533;51.090;17.216;2023-05-14T04:30:17;100601.03;;;8.52;74.42
79136;BME280;68533;51.090;17.216;2023-05-14T04:32:43;100609.38;;;8.73;73.89
79136;BME280;68533;51.090;17.216;2023-05-14T04:35:10;100602.34;;;9.02;73.13
79136;BME280;68533;51.090;17.216;2023-05-14T04:37:36;100607.31;;;9.15;72.42
79136;BME280;68533;51.090;17.216;2023-05-14T04:40:03;100604.88;;;9.24;71.64
79136;BME280;68533;51.090;17.216;2023-05-14T04:44:59;100597.53;;;9.70;70.23
79136;BME280;68533;51.090;17.216;2023-05-14T04:47:26;100596.16;;;9.83;69.69
79136;BME280;68533;51.090;17.216;2023-05-14T04:49:51;100596.41;;;9.86;69.44
79136;BME280;68533;51.090;17.216;2023-05-14T04:52:18;100597.78;;;9.73;69.98
79136;BME280;68533;51.090;17.216;2023-05-14T04:54:43;100597.25;;;9.82;70.55
79136;BME280;68533;51.090;17.216;2023-05-14T04:57:10;100591.22;;;9.85;69.97
79136;BME280;68533;51.090;17.216;2023-05-14T04:59:36;100585.97;;;10.24;68.64
79136;BME280;68533;51.090;17.216;2023-05-14T05:02:04;100581.03;;;10.21;68.13
79136;BME280;68533;51.090;17.216;2023-05-14T05:04:31;100583.19;;;10.39;67.19
79136;BME280;68533;51.090;17.216;2023-05-14T05:06:57;100590.22;;;10.75;67.29
79136;BME280;68533;51.090;17.216;2023-05-14T05:09:23;100588.28;;;10.81;66.29
79136;BME280;68533;51.090;17.216;2023-05-14T05:11:51;100591.06;;;10.71;67.72
79136;BME280;68533;51.090;17.216;2023-05-14T05:14:18;100576.38;;;10.90;66.61
79136;BME280;68533;51.090;17.216;2023-05-14T05:16:44;100579.84;;;11.16;66.20
79136;BME280;68533;51.090;17.216;2023-05-14T05:19:10;100576.50;;;10.65;67.12
79136;BME280;68533;51.090;17.216;2023-05-14T05:21:37;100574.28;;;10.72;67.01
79136;BME280;68533;51.090;17.216;2023-05-14T05:24:06;100579.91;;;11.01;68.50
79136;BME280;68533;51.090;17.216;2023-05-14T05:26:33;100579.41;;;10.94;66.90
79136;BME280;68533;51.090;17.216;2023-05-14T05:29:04;100574.38;;;11.11;65.96
79136;BME280;68533;51.090;17.216;2023-05-14T05:31:30;100573.75;;;11.24;65.81
79136;BME280;68533;51.090;17.216;2023-05-14T05:34:00;100566.28;;;11.64;63.73
79136;BME280;68533;51.090;17.216;2023-05-14T05:36:26;100568.91;;;11.84;64.15
79136;BME280;68533;51.090;17.216;2023-05-14T05:38:53;100568.81;;;11.94;64.19
79136;BME280;68533;51.090;17.216;2023-05-14T05:41:19;100571.53;;;11.99;64.20
79136;BME280;68533;51.090;17.216;2023-05-14T05:43:45;100569.63;;;12.24;63.66
79136;BME280;68533;51.090;17.216;2023-05-14T05:46:11;100556.75;;;12.43;63.06
79136;BME280;68533;51.090;17.216;2023-05-14T05:48:37;100566.06;;;12.47;61.04
79136;BME280;68533;51.090;17.216;2023-05-14T05:51:04;100565.16;;;12.75;60.54
79136;BME280;68533;51.090;17.216;2023-05-14T05:53:30;100563.19;;;12.81;59.62
79136;BME280;68533;51.090;17.216;2023-05-14T05:55:58;100563.34;;;13.08;58.84
79136;BME280;68533;51.090;17.216;2023-05-14T05:58:24;100554.38;;;12.98;59.38
79136;BME280;68533;51.090;17.216;2023-05-14T06:00:51;100563.25;;;13.18;59.43
79136;BME280;68533;51.090;17.216;2023-05-14T06:03:17;100567.84;;;13.60;59.60
79136;BME280;68533;51.090;17.216;2023-05-14T06:05:44;100576.22;;;13.37;59.21
79136;BME280;68533;51.090;17.216;2023-05-14T06:08:18;100567.91;;;13.74;58.78
79136;BME280;68533;51.090;17.216;2023-05-14T06:10:45;100571.00;;;13.35;59.46
79136;BME280;68533;51.090;17.216;2023-05-14T06:13:11;100561.91;;;13.53;58.20
79136;BME280;68533;51.090;17.216;2023-05-14T06:15:37;100565.66;;;13.76;58.88
79136;BME280;68533;51.090;17.216;2023-05-14T06:18:03;100564.66;;;13.35;58.02
79136;BME280;68533;51.090;17.216;2023-05-14T06:20:31;100567.56;;;13.43;58.01
79136;BME280;68533;51.090;17.216;2023-05-14T06:22:59;100568.16;;;13.59;57.91
79136;BME280;68533;51.090;17.216;2023-05-14T06:25:25;100565.38;;;13.78;56.83
79136;BME280;68533;51.090;17.216;2023-05-14T06:27:51;100564.81;;;14.41;56.14
79136;BME280;68533;51.090;17.216;2023-05-14T06:30:19;100564.72;;;14.59;53.32
79136;BME280;68533;51.090;17.216;2023-05-14T06:32:45;100568.50;;;15.54;53.55
79136;BME280;68533;51.090;17.216;2023-05-14T06:35:17;100558.66;;;15.34;53.34
79136;BME280;68533;51.090;17.216;2023-05-14T06:37:44;100558.22;;;15.77;52.90
79136;BME280;68533;51.090;17.216;2023-05-14T06:40:11;100560.78;;;15.01;50.79
79136;BME280;68533;51.090;17.216;2023-05-14T06:42:40;100553.38;;;15.82;52.02
79136;BME280;68533;51.090;17.216;2023-05-14T06:45:07;100555.50;;;16.08;50.91
79136;BME280;68533;51.090;17.216;2023-05-14T06:47:33;100556.66;;;16.46;51.40
79136;BME280;68533;51.090;17.216;2023-05-14T06:49:59;100545.53;;;16.77;46.55
79136;BME280;68533;51.090;17.216;2023-05-14T06:52:26;100546.28;;;17.17;46.09
79136;BME280;68533;51.090;17.216;2023-05-14T06:54:53;100550.19;;;17.51;44.95
79136;BME280;68533;51.090;17.216;2023-05-14T06:57:19;100542.69;;;17.34;47.95
79136;BME280;68533;51.090;17.216;2023-05-14T06:59:46;100534.16;;;17.13;45.29
79136;BME280;68533;51.090;17.216;2023-05-14T07:02:11;100530.72;;;17.51;44.25
79136;BME280;68533;51.090;17.216;2023-05-14T07:04:38;100540.97;;;18.66;43.49
79136;BME280;68533;51.090;17.216;2023-05-14T07:07:06;100528.97;;;18.36;40.86
79136;BME280;68533;51.090;17.216;2023-05-14T07:09:34;100525.31;;;17.97;43.17
79136;BME280;68533;51.090;17.216;2023-05-14T07:12:00;100517.78;;;17.98;41.50
79136;BME280;68533;51.090;17.216;2023-05-14T07:14:30;100518.28;;;18.00;41.03
79136;BME280;68533;51.090;17.216;2023-05-14T07:16:56;100522.38;;;17.59;42.05
79136;BME280;68533;51.090;17.216;2023-05-14T07:19:22;100519.91;;;18.39;42.18
79136;BME280;68533;51.090;17.216;2023-05-14T07:21:48;100513.53;;;18.76;40.29
79136;BME280;68533;51.090;17.216;2023-05-14T07:24:14;100522.09;;;18.71;40.27
79136;BME280;68533;51.090;17.216;2023-05-14T07:26:40;100515.09;;;18.18;40.42
79136;BME280;68533;51.090;17.216;2023-05-14T07:29:06;100515.13;;;18.10;40.96
79136;BME280;68533;51.090;17.216;2023-05-14T07:31:32;100504.53;;;18.41;39.32
79136;BME280;68533;51.090;17.216;2023-05-14T07:34:01;100519.88;;;18.85;40.27
79136;BME280;68533;51.090;17.216;2023-05-14T07:36:27;100509.72;;;18.13;40.93
79136;BME280;68533;51.090;17.216;2023-05-14T07:38:54;100509.84;;;18.64;42.42
79136;BME280;68533;51.090;17.216;2023-05-14T07:41:20;100504.38;;;19.26;37.75
79136;BME280;68533;51.090;17.216;2023-05-14T07:43:46;100506.00;;;18.77;38.71
79136;BME280;68533;51.090;17.216;2023-05-14T07:46:13;100493.94;;;18.93;38.56
79136;BME280;68533;51.090;17.216;2023-05-14T07:48:40;100499.94;;;19.04;36.56
79136;BME280;68533;51.090;17.216;2023-05-14T07:51:09;100501.03;;;19.53;39.16
79136;BME280;68533;51.090;17.216;2023-05-14T07:53:39;100506.88;;;19.60;37.87
79136;BME280;68533;51.090;17.216;2023-05-14T07:56:06;100502.66;;;19.54;39.46
79136;BME280;68533;51.090;17.216;2023-05-14T07:58:32;100503.06;;;19.03;40.22
79136;BME280;68533;51.090;17.216;2023-05-14T08:00:59;100505.78;;;19.32;37.66
79136;BME280;68533;51.090;17.216;2023-05-14T08:03:26;100494.34;;;19.46;38.91
79136;BME280;68533;51.090;17.216;2023-05-14T08:05:52;100502.25;;;19.23;37.95
79136;BME280;68533;51.090;17.216;2023-05-14T08:08:18;100494.63;;;19.32;40.78
79136;BME280;68533;51.090;17.216;2023-05-14T08:10:44;100485.47;;;19.64;37.89
79136;BME280;68533;51.090;17.216;2023-05-14T08:13:10;100488.03;;;19.57;37.22
79136;BME280;68533;51.090;17.216;2023-05-14T08:15:36;100479.72;;;19.69;36.92
79136;BME280;68533;51.090;17.216;2023-05-14T08:18:03;100485.97;;;20.24;35.59
79136;BME280;68533;51.090;17.216;2023-05-14T08:20:29;100484.69;;;19.22;36.34
79136;BME280;68533;51.090;17.216;2023-05-14T08:22:57;100486.41;;;19.15;36.83
79136;BME280;68533;51.090;17.216;2023-05-14T08:25:23;100483.97;;;20.00;36.03
79136;BME280;68533;51.090;17.216;2023-05-14T08:27:49;100475.13;;;19.86;36.60
79136;BME280;68533;51.090;17.216;2023-05-14T08:30:15;100464.28;;;19.51;36.49
79136;BME280;68533;51.090;17.216;2023-05-14T08:32:42;100478.84;;;19.90;37.51
79136;BME280;68533;51.090;17.216;2023-05-14T08:35:14;100472.53;;;19.81;38.28
79136;BME280;68533;51.090;17.216;2023-05-14T08:37:41;100467.97;;;19.22;37.26
79136;BME280;68533;51.090;17.216;2023-05-14T08:40:09;100466.38;;;19.87;38.21
79136;BME280;68533;51.090;17.216;2023-05-14T08:42:40;100469.91;;;20.08;37.16
79136;BME280;68533;51.090;17.216;2023-05-14T08:45:13;100457.06;;;19.50;38.07
79136;BME280;68533;51.090;17.216;2023-05-14T08:47:43;100456.34;;;19.74;39.04
79136;BME280;68533;51.090;17.216;2023-05-14T08:50:13;100464.78;;;19.98;38.25
79136;BME280;68533;51.090;17.216;2023-05-14T08:52:42;100464.78;;;19.98;37.37
79136;BME280;68533;51.090;17.216;2023-05-14T08:55:09;100462.00;;;19.98;37.68
79136;BME280;68533;51.090;17.216;2023-05-14T08:57:36;100452.56;;;20.03;35.50
79136;BME280;68533;51.090;17.216;2023-05-14T09:00:03;100450.84;;;19.65;37.38
79136;BME280;68533;51.090;17.216;2023-05-14T09:02:34;100448.75;;;20.32;34.61
79136;BME280;68533;51.090;17.216;2023-05-14T09:05:01;100441.16;;;20.93;35.34
79136;BME280;68533;51.090;17.216;2023-05-14T09:07:28;100446.16;;;21.40;34.92
79136;BME280;68533;51.090;17.216;2023-05-14T09:09:54;100439.75;;;20.99;34.91
79136;BME280;68533;51.090;17.216;2023-05-14T09:12:24;100441.63;;;20.95;36.15
79136;BME280;68533;51.090;17.216;2023-05-14T09:14:50;100433.50;;;20.17;37.16
79136;BME280;68533;51.090;17.216;2023-05-14T09:17:17;100431.50;;;20.90;34.33
79136;BME280;68533;51.090;17.216;2023-05-14T09:19:44;100432.53;;;19.76;36.20
79136;BME280;68533;51.090;17.216;2023-05-14T09:22:18;100433.03;;;18.54;39.81
79136;BME280;68533;51.090;17.216;2023-05-14T09:24:44;100428.75;;;19.93;35.22
79136;BME280;68533;51.090;17.216;2023-05-14T09:27:17;100416.50;;;22.10;32.13
79136;BME280;68533;51.090;17.216;2023-05-14T09:29:46;100420.47;;;21.50;32.42
79136;BME280;68533;51.090;17.216;2023-05-14T09:32:13;100421.31;;;20.58;33.92
79136;BME280;68533;51.090;17.216;2023-05-14T09:34:39;100410.81;;;18.45;37.33
79136;BME280;68533;51.090;17.216;2023-05-14T09:37:07;100402.00;;;18.73;37.13
79136;BME280;68533;51.090;17.216;2023-05-14T09:39:35;100403.81;;;21.13;33.53
79136;BME280;68533;51.090;17.216;2023-05-14T09:42:02;100401.91;;;22.52;33.91
79136;BME280;68533;51.090;17.216;2023-05-14T09:44:28;100400.81;;;22.56;35.71
79136;BME280;68533;51.090;17.216;2023-05-14T09:46:57;100392.03;;;23.31;30.32
79136;BME280;68533;51.090;17.216;2023-05-14T09:49:23;100390.78;;;20.77;32.81
79136;BME280;68533;51.090;17.216;2023-05-14T09:51:50;100383.09;;;21.58;31.77
79136;BME280;68533;51.090;17.216;2023-05-14T09:54:19;100382.50;;;22.97;30.82
79136;BME280;68533;51.090;17.216;2023-05-14T09:56:45;100384.66;;;23.23;29.83
79136;BME280;68533;51.090;17.216;2023-05-14T09:59:12;100380.38;;;23.10;29.96
79136;BME280;68533;51.090;17.216;2023-05-14T10:01:41;100365.66;;;22.08;29.30
79136;BME280;68533;51.090;17.216;2023-05-14T10:04:08;100371.16;;;22.90;31.75
79136;BME280;68533;51.090;17.216;2023-05-14T10:06:38;100371.81;;;24.10;28.95
79136;BME280;68533;51.090;17.216;2023-05-14T10:09:13;100376.19;;;22.65;32.54
79136;BME280;68533;51.090;17.216;2023-05-14T10:11:43;100365.47;;;21.42;33.71
79136;BME280;68533;51.090;17.216;2023-05-14T10:14:19;100360.88;;;19.56;35.72
79136;BME280;68533;51.090;17.216;2023-05-14T10:16:52;100366.50;;;19.35;37.58
79136;BME280;68533;51.090;17.216;2023-05-14T10:19:22;100362.53;;;20.67;35.99
79136;BME280;68533;51.090;17.216;2023-05-14T10:21:56;100367.59;;;21.60;33.44
79136;BME280;68533;51.090;17.216;2023-05-14T10:24:27;100368.25;;;22.67;35.81
79136;BME280;68533;51.090;17.216;2023-05-14T10:26:55;100363.00;;;23.62;28.75
79136;BME280;68533;51.090;17.216;2023-05-14T10:29:32;100352.16;;;24.10;30.09
79136;BME280;68533;51.090;17.216;2023-05-14T10:32:03;100359.31;;;23.39;29.57
79136;BME280;68533;51.090;17.216;2023-05-14T10:34:34;100348.75;;;24.76;32.77
79136;BME280;68533;51.090;17.216;2023-05-14T10:37:09;100346.09;;;26.49;24.18
79136;BME280;68533;51.090;17.216;2023-05-14T10:42:19;100337.69;;;22.27;32.81
79136;BME280;68533;51.090;17.216;2023-05-14T10:44:56;100334.41;;;22.41;33.41
79136;BME280;68533;51.090;17.216;2023-05-14T10:47:25;100336.78;;;21.01;34.16
79136;BME280;68533;51.090;17.216;2023-05-14T10:49:58;100328.47;;;18.86;36.29
79136;BME280;68533;51.090;17.216;2023-05-14T10:52:25;100333.59;;;20.23;33.26
79136;BME280;68533;51.090;17.216;2023-05-14T10:54:56;100328.50;;;21.80;32.55
79136;BME280;68533;51.090;17.216;2023-05-14T10:57:24;100329.00;;;22.67;32.40
79136;BME280;68533;51.090;17.216;2023-05-14T10:59:52;100326.50;;;23.85;29.13
79136;BME280;68533;51.090;17.216;2023-05-14T11:02:25;100324.91;;;25.26;26.72
79136;BME280;68533;51.090;17.216;2023-05-14T11:05:02;100320.84;;;25.24;26.51
79136;BME280;68533;51.090;17.216;2023-05-14T11:10:01;100315.09;;;24.53;28.60
79136;BME280;68533;51.090;17.216;2023-05-14T11:12:28;100313.25;;;24.34;29.11
79136;BME280;68533;51.090;17.216;2023-05-14T11:14:58;100311.50;;;22.20;30.00
79136;BME280;68533;51.090;17.216;2023-05-14T11:17:26;100309.03;;;22.88;29.01
79136;BME280;68533;51.090;17.216;2023-05-14T11:19:53;100303.44;;;22.34;30.00
79136;BME280;68533;51.090;17.216;2023-05-14T11:22:20;100301.16;;;22.74;30.12
79136;BME280;68533;51.090;17.216;2023-05-14T11:24:49;100304.47;;;25.33;31.58
79136;BME280;68533;51.090;17.216;2023-05-14T11:27:16;100292.00;;;23.84;27.68
79136;BME280;68533;51.090;17.216;2023-05-14T11:29:48;100303.19;;;22.77;29.92
79136;BME280;68533;51.090;17.216;2023-05-14T11:32:18;100301.00;;;25.09;28.10
79136;BME280;68533;51.090;17.216;2023-05-14T11:34:46;100286.78;;;24.65;28.48
79136;BME280;68533;51.090;17.216;2023-05-14T11:37:14;100288.78;;;24.98;26.96
79136;BME280;68533;51.090;17.216;2023-05-14T11:39:48;100286.94;;;23.25;30.65
79136;BME280;68533;51.090;17.216;2023-05-14T11:42:15;100290.00;;;23.20;28.79
79136;BME280;68533;51.090;17.216;2023-05-14T11:44:47;100283.00;;;23.75;31.84
79136;BME280;68533;51.090;17.216;2023-05-14T11:47:14;100280.22;;;24.02;32.09
79136;BME280;68533;51.090;17.216;2023-05-14T11:49:40;100277.47;;;23.14;29.80
79136;BME280;68533;51.090;17.216;2023-05-14T11:52:08;100283.38;;;21.65;31.49
79136;BME280;68533;51.090;17.216;2023-05-14T11:54:36;100279.41;;;21.66;30.78
79136;BME280;68533;51.090;17.216;2023-05-14T11:57:07;100272.50;;;22.84;32.83
79136;BME280;68533;51.090;17.216;2023-05-14T11:59:34;100271.81;;;24.58;30.29
79136;BME280;68533;51.090;17.216;2023-05-14T12:02:01;100274.44;;;21.76;32.12
79136;BME280;68533;51.090;17.216;2023-05-14T12:04:28;100268.34;;;22.21;31.13
79136;BME280;68533;51.090;17.216;2023-05-14T12:06:58;100269.19;;;22.05;32.19
79136;BME280;68533;51.090;17.216;2023-05-14T12:09:24;100264.91;;;20.46;33.79
79136;BME280;68533;51.090;17.216;2023-05-14T12:11:51;100271.41;;;19.73;37.33
79136;BME280;68533;51.090;17.216;2023-05-14T12:14:21;100265.81;;;19.98;36.48
79136;BME280;68533;51.090;17.216;2023-05-14T12:16:49;100253.09;;;20.37;35.54
79136;BME280;68533;51.090;17.216;2023-05-14T12:19:18;100264.56;;;20.75;36.46
79136;BME280;68533;51.090;17.216;2023-05-14T12:21:47;100251.81;;;20.10;35.80
79136;BME280;68533;51.090;17.216;2023-05-14T12:24:18;100255.69;;;20.05;36.41
79136;BME280;68533;51.090;17.216;2023-05-14T12:26:49;100249.13;;;20.66;36.53
79136;BME280;68533;51.090;17.216;2023-05-14T12:29:16;100245.97;;;20.27;36.55
79136;BME280;68533;51.090;17.216;2023-05-14T12:31:47;100247.78;;;21.03;35.21
79136;BME280;68533;51.090;17.216;2023-05-14T12:34:15;100243.75;;;21.16;35.46
79136;BME280;68533;51.090;17.216;2023-05-14T12:36:42;100240.16;;;21.63;36.18
79136;BME280;68533;51.090;17.216;2023-05-14T12:39:09;100243.78;;;21.32;35.34
79136;BME280;68533;51.090;17.216;2023-05-14T12:41:36;100240.22;;;21.19;37.69
79136;BME280;68533;51.090;17.216;2023-05-14T12:44:05;100239.06;;;21.36;35.44
79136;BME280;68533;51.090;17.216;2023-05-14T12:46:32;100230.22;;;21.65;34.72
79136;BME280;68533;51.090;17.216;2023-05-14T12:48:58;100241.22;;;21.58;34.16
79136;BME280;68533;51.090;17.216;2023-05-14T12:51:25;100233.13;;;22.77;32.31
79136;BME280;68533;51.090;17.216;2023-05-14T12:53:51;100244.44;;;22.08;33.80
79136;BME280;68533;51.090;17.216;2023-05-14T12:56:19;100250.19;;;22.15;35.14
79136;BME280;68533;51.090;17.216;2023-05-14T12:58:55;100242.28;;;22.74;30.35
79136;BME280;68533;51.090;17.216;2023-05-14T13:01:22;100226.78;;;22.80;30.48